createdAt,value
2019-01-27T00:01:12.077Z,32.33
2019-01-27T00:03:19.912Z,25.75
2019-01-27T00:05:25.962Z,21.35
2019-01-27T00:07:31.818Z,34.03
2019-01-27T00:09:55.043Z,24.98
2019-01-27T00:12:00.478Z,22.48
2019-01-27T00:14:06.297Z,22.05
2019-01-27T00:16:29.530Z,22.75
2019-01-27T00:18:36.069Z,23.02
2019-01-27T00:20:42.232Z,24.23
2019-01-27T00:22:49.359Z,28.17
2019-01-27T00:25:13.273Z,29.57
2019-01-27T00:27:36.723Z,34.80
2019-01-27T00:29:44.863Z,26.48
2019-01-27T00:31:50.594Z,22.22
2019-01-27T00:34:13.762Z,28.35
2019-01-27T00:36:19.805Z,35.35
2019-01-27T00:38:25.911Z,36.65
2019-01-27T00:40:31.853Z,26.73
2019-01-27T00:42:56.690Z,32.28
2019-01-27T00:45:19.914Z,29.45
2019-01-27T00:47:33.087Z,27.82
2019-01-27T00:49:40.722Z,30.85
2019-01-27T00:51:48.073Z,38.58
2019-01-27T00:53:54.367Z,27.05
2019-01-27T00:55:59.889Z,27.48
2019-01-27T00:58:05.617Z,28.90
2019-01-27T01:00:33.286Z,32.48
2019-01-27T01:04:50.374Z,26.52
2019-01-27T01:07:13.892Z,25.80
2019-01-27T01:09:39.046Z,23.10
2019-01-27T01:12:02.232Z,25.92
2019-01-27T01:14:07.837Z,26.15
2019-01-27T01:16:13.281Z,24.87
2019-01-27T01:18:18.920Z,24.52
2019-01-27T01:20:42.073Z,26.25
2019-01-27T01:22:51.228Z,24.85
2019-01-27T01:24:58.385Z,21.35
2019-01-27T01:27:03.879Z,22.75
2019-01-27T01:29:15.667Z,25.95
2019-01-27T01:31:21.199Z,26.10
2019-01-27T01:35:47.926Z,31.35
2019-01-27T01:38:08.329Z,26.33
2019-01-27T01:42:37.377Z,25.30
2019-01-27T01:45:00.901Z,25.00
2019-01-27T01:47:09.934Z,32.05
2019-01-27T01:49:15.437Z,35.15
2019-01-27T01:51:38.761Z,31.10
2019-01-27T01:53:44.389Z,30.75
2019-01-27T01:55:49.821Z,27.30
2019-01-27T01:57:55.346Z,29.20
2019-01-27T02:00:20.540Z,27.37
2019-01-27T02:02:43.821Z,32.17
2019-01-27T02:04:49.621Z,29.30
2019-01-27T02:06:55.989Z,33.58
2019-01-27T02:09:01.431Z,30.00
2019-01-27T02:11:24.630Z,29.00
2019-01-27T02:13:47.911Z,31.80
2019-01-27T02:16:02.966Z,38.38
2019-01-27T02:18:09.334Z,34.48
2019-01-27T02:20:44.025Z,38.30
2019-01-27T02:23:07.346Z,37.03
2019-01-27T02:25:18.749Z,34.15
2019-01-27T02:27:28.726Z,42.70
2019-01-27T02:29:34.189Z,45.90
2019-01-27T02:31:57.725Z,37.95
2019-01-27T02:34:20.776Z,35.65
2019-01-27T02:38:58.243Z,23.07
2019-01-27T02:41:17.765Z,27.77
2019-01-27T02:43:23.237Z,25.60
2019-01-27T02:45:29.970Z,20.90
2019-01-27T02:47:36.446Z,23.47
2019-01-27T02:49:42.109Z,16.90
2019-01-27T02:51:47.620Z,13.43
2019-01-27T02:54:10.581Z,19.30
2019-01-27T02:56:16.050Z,18.00
2019-01-27T02:58:21.505Z,13.03
2019-01-27T03:00:27.202Z,22.02
2019-01-27T03:02:32.910Z,16.87
2019-01-27T03:07:32.349Z,18.57
2019-01-27T03:09:55.584Z,12.88
2019-01-27T03:12:04.158Z,12.98
2019-01-27T03:14:14.244Z,17.15
2019-01-27T03:16:19.695Z,16.05
2019-01-27T03:18:42.798Z,11.22
2019-01-27T03:21:17.553Z,13.78
2019-01-27T03:23:24.466Z,12.63
2019-01-27T03:25:29.940Z,9.30
2019-01-27T03:29:47.397Z,11.50
2019-01-27T03:36:16.829Z,13.95
2019-01-27T03:38:22.541Z,13.75
2019-01-27T03:40:28.274Z,10.43
2019-01-27T03:42:33.716Z,10.43
2019-01-27T03:44:56.861Z,14.98
2019-01-27T03:47:08.270Z,12.25
2019-01-27T03:49:16.770Z,12.55
2019-01-27T03:51:22.215Z,14.75
2019-01-27T03:53:29.890Z,13.00
2019-01-27T03:55:35.470Z,9.43
2019-01-27T03:57:42.651Z,10.85
2019-01-27T04:00:08.125Z,11.95
2019-01-27T04:02:16.145Z,11.15
2019-01-27T04:04:21.883Z,11.43
2019-01-27T04:06:27.974Z,8.00
2019-01-27T04:08:51.487Z,9.95
2019-01-27T04:10:56.899Z,8.90
2019-01-27T04:13:02.708Z,12.68
2019-01-27T04:15:09.022Z,10.08
2019-01-27T04:17:32.157Z,9.03
2019-01-27T04:19:55.293Z,12.65
2019-01-27T04:22:01.091Z,8.25
2019-01-27T04:24:07.574Z,13.45
2019-01-27T04:26:14.705Z,13.18
2019-01-27T04:28:38.169Z,12.73
2019-01-27T04:30:43.587Z,14.98
2019-01-27T04:32:50.833Z,19.95
2019-01-27T04:37:16.517Z,15.63
2019-01-27T04:39:22.159Z,21.35
2019-01-27T04:41:30.269Z,21.15
2019-01-27T04:43:35.698Z,17.65
2019-01-27T04:45:59.193Z,15.85
2019-01-27T04:48:22.344Z,17.55
2019-01-27T04:50:45.634Z,17.85
2019-01-27T04:52:53.175Z,15.28
2019-01-27T04:54:58.654Z,14.58
2019-01-27T04:57:05.905Z,13.15
2019-01-27T04:59:17.200Z,16.15
2019-01-27T05:01:24.364Z,15.95
2019-01-27T05:05:51.291Z,13.70
2019-01-27T05:08:14.456Z,12.85
2019-01-27T05:10:37.747Z,11.90
2019-01-27T05:12:51.537Z,13.22
2019-01-27T05:14:56.991Z,14.93
2019-01-27T05:17:02.887Z,13.62
2019-01-27T05:19:23.342Z,10.08
2019-01-27T05:21:46.528Z,12.05
2019-01-27T05:23:54.859Z,9.03
2019-01-27T05:26:01.765Z,11.40
2019-01-27T05:28:07.577Z,8.65
2019-01-27T05:30:30.806Z,9.23
2019-01-27T05:32:36.500Z,16.95
2019-01-27T05:34:42.011Z,12.93
2019-01-27T05:36:51.471Z,10.03
2019-01-27T05:39:01.069Z,11.80
2019-01-27T05:41:06.858Z,11.68
2019-01-27T05:43:12.685Z,12.98
2019-01-27T05:45:35.966Z,10.95
2019-01-27T05:47:59.110Z,11.00
2019-01-27T05:50:22.646Z,8.53
2019-01-27T05:52:46.215Z,16.25
2019-01-27T05:54:51.997Z,11.93
2019-01-27T05:57:02.783Z,18.17
2019-01-27T05:59:12.440Z,12.05
2019-01-27T06:01:30.738Z,13.72
2019-01-27T06:03:54.208Z,14.47
2019-01-27T06:06:01.341Z,8.85
2019-01-27T06:08:06.829Z,12.50
2019-01-27T06:10:41.557Z,12.00
2019-01-27T06:13:05.009Z,14.60
2019-01-27T06:15:29.935Z,12.88
2019-01-27T06:17:37.507Z,13.28
2019-01-27T06:19:44.695Z,10.20
2019-01-27T06:21:50.228Z,12.75
2019-01-27T06:24:14.022Z,17.73
2019-01-27T06:26:37.267Z,14.07
2019-01-27T06:29:00.414Z,12.15
2019-01-27T06:31:07.874Z,12.73
2019-01-27T06:33:43.545Z,14.78
2019-01-27T06:35:50.710Z,12.90
2019-01-27T06:37:56.242Z,11.63
2019-01-27T06:40:01.779Z,9.55
2019-01-27T06:42:08.558Z,10.15
2019-01-27T06:44:13.977Z,14.07
2019-01-27T06:46:19.651Z,13.00
2019-01-27T06:48:42.738Z,13.22
2019-01-27T06:51:05.977Z,10.30
2019-01-27T06:53:11.671Z,13.38
2019-01-27T06:55:19.081Z,19.25
2019-01-27T08:29:29.274Z,16.90
2019-01-27T08:32:03.761Z,14.93
2019-01-27T08:34:47.725Z,19.77
2019-01-27T08:46:52.387Z,22.70
2019-01-27T08:49:00.882Z,21.57
2019-01-27T08:51:07.096Z,20.15
2019-01-27T08:53:15.814Z,25.10
2019-01-27T08:55:36.596Z,18.05
2019-01-27T08:57:42.286Z,20.75
2019-01-27T08:59:49.582Z,18.50
2019-01-27T09:02:14.486Z,21.57
2019-01-27T09:04:42.259Z,18.07
2019-01-27T09:07:02.514Z,16.15
2019-01-27T09:09:34.263Z,21.52
2019-01-27T09:11:56.153Z,20.15
2019-01-27T09:14:20.770Z,20.25
2019-01-27T09:16:55.349Z,28.17
2019-01-27T09:19:21.291Z,20.82
2019-01-27T09:21:45.996Z,22.95
2019-01-27T09:26:33.545Z,19.27
2019-01-27T09:28:48.547Z,25.72
2019-01-27T09:31:18.885Z,26.25
2019-01-27T09:33:33.310Z,21.05
2019-01-27T09:36:09.973Z,24.43
2019-01-27T09:38:39.457Z,19.48
2019-01-27T09:41:06.735Z,23.75
2019-01-27T09:43:34.979Z,20.00
2019-01-27T09:46:05.400Z,27.45
2019-01-27T09:48:36.927Z,23.25
2019-01-27T09:50:47.450Z,20.62
2019-01-27T09:53:11.094Z,23.92
2019-01-27T09:55:39.045Z,18.12
2019-01-27T09:58:00.279Z,24.98
2019-01-27T10:00:28.745Z,21.20
2019-01-27T10:02:56.115Z,19.75
2019-01-27T10:05:11.726Z,18.80
2019-01-27T10:07:33.217Z,20.20
2019-01-27T10:09:56.550Z,21.40
2019-01-27T10:14:53.242Z,20.25
2019-01-27T10:17:13.895Z,19.25
2019-01-27T10:19:37.593Z,18.00
2019-01-27T10:21:50.078Z,17.75
2019-01-27T10:24:13.994Z,20.97
2019-01-27T10:26:39.023Z,20.25
2019-01-27T10:28:59.660Z,19.48
2019-01-27T10:31:23.738Z,18.50
2019-01-27T10:33:53.188Z,19.50
2019-01-27T10:36:25.453Z,14.90
2019-01-27T10:38:39.264Z,26.48
2019-01-27T10:41:07.821Z,17.73
2019-01-27T10:43:33.067Z,18.73
2019-01-27T10:45:54.940Z,20.70
2019-01-27T10:48:19.003Z,17.15
2019-01-27T10:50:46.284Z,24.85
2019-01-27T10:53:20.889Z,22.65
2019-01-27T10:55:45.282Z,25.37
2019-01-27T10:58:22.180Z,22.93
2019-01-27T11:00:52.299Z,23.35
2019-01-27T11:03:24.982Z,18.50
2019-01-27T11:05:52.081Z,23.90
2019-01-27T11:08:20.963Z,18.95
2019-01-27T11:10:53.266Z,23.07
2019-01-27T11:13:14.542Z,21.82
2019-01-27T11:15:54.597Z,26.50
2019-01-27T11:18:25.585Z,23.27
2019-01-27T13:21:32.178Z,27.90
2019-01-27T18:15:10.493Z,54.30
2019-01-27T18:17:16.196Z,54.33
2019-01-27T18:19:21.839Z,55.40
2019-01-27T18:21:28.355Z,52.60
2019-01-27T18:23:35.259Z,54.10
2019-01-27T18:25:44.877Z,64.53
2019-01-27T18:27:59.419Z,55.20
2019-01-27T18:47:56.719Z,41.80
2019-01-27T18:50:38.977Z,45.12
2019-01-27T18:53:04.974Z,45.52
2019-01-27T18:57:56.599Z,39.08
2019-01-27T18:59:28.271Z,35.13
2019-01-27T19:02:44.137Z,40.60
2019-01-27T19:09:17.859Z,30.70
2019-01-27T19:11:48.462Z,34.63
2019-01-27T19:14:17.190Z,32.28
2019-01-27T19:16:35.869Z,33.35
2019-01-27T19:19:15.636Z,33.42
2019-01-27T19:21:39.283Z,29.40
2019-01-27T19:24:04.200Z,28.67
2019-01-27T19:26:25.514Z,36.38
2019-01-27T19:28:45.883Z,34.18
2019-01-27T19:31:00.966Z,30.62
2019-01-27T19:33:17.896Z,34.55
2019-01-27T19:35:51.851Z,34.33
2019-01-27T19:38:19.366Z,26.90
2019-01-27T19:40:38.775Z,29.00
2019-01-27T19:42:54.957Z,26.30
2019-01-27T19:45:25.694Z,29.92
2019-01-27T19:47:38.671Z,30.37
2019-01-27T19:49:54.927Z,28.77
2019-01-27T19:52:08.540Z,34.05
2019-01-27T19:54:43.392Z,27.17
2019-01-27T19:57:13.000Z,22.22
2019-01-27T19:59:48.528Z,25.60
2019-01-27T20:02:17.911Z,29.55
2019-01-27T20:04:41.113Z,25.12
2019-01-27T20:06:58.962Z,29.23
2019-01-27T20:09:23.609Z,31.48
2019-01-27T20:11:46.761Z,31.00
2019-01-27T20:14:03.993Z,25.95
2019-01-27T20:16:26.979Z,29.18
2019-01-27T20:19:00.465Z,25.45
2019-01-27T20:21:19.934Z,23.87
2019-01-27T20:23:51.806Z,25.85
2019-01-27T20:26:05.594Z,32.38
2019-01-27T20:28:18.725Z,31.52
2019-01-27T20:30:43.340Z,34.35
2019-01-27T20:33:11.432Z,31.37
2019-01-27T20:35:43.113Z,33.95
2019-01-27T20:38:06.741Z,30.25
2019-01-27T20:40:44.693Z,26.65
2019-01-27T20:43:04.968Z,28.23
2019-01-27T20:45:25.516Z,31.23
2019-01-27T20:47:41.827Z,27.77
2019-01-27T20:50:09.547Z,28.38
2019-01-27T20:52:34.181Z,34.27
2019-01-27T20:54:57.391Z,35.13
2019-01-27T20:57:24.963Z,31.27
2019-01-27T20:59:37.671Z,22.80
2019-01-27T21:02:20.570Z,25.60
2019-01-27T21:04:36.887Z,25.92
2019-01-27T21:06:59.866Z,25.02
2019-01-27T21:09:27.158Z,27.50
2019-01-27T21:11:42.072Z,26.33
2019-01-27T21:14:02.969Z,24.43
2019-01-27T21:16:26.212Z,28.17
2019-01-27T21:18:35.394Z,33.20
2019-01-27T21:20:41.002Z,56.88
2019-01-27T21:22:46.530Z,45.90
2019-01-27T21:24:52.613Z,39.27
2019-01-27T21:26:58.440Z,31.27
2019-01-27T21:29:04.725Z,30.55
2019-01-27T21:31:10.977Z,29.52
2019-01-27T21:33:16.576Z,28.87
2019-01-27T21:35:22.624Z,31.75
2019-01-27T21:37:28.317Z,35.15
2019-01-27T21:39:33.946Z,43.85
2019-01-27T21:41:39.530Z,36.33
2019-01-27T21:43:45.320Z,49.60
2019-01-27T21:45:50.929Z,40.78
2019-01-27T21:47:56.677Z,35.83
2019-01-27T21:50:05.303Z,37.03
2019-01-27T21:52:12.127Z,39.25
2019-01-27T21:54:17.952Z,29.45
2019-01-27T21:56:26.838Z,34.45
2019-01-27T21:58:32.408Z,35.23
2019-01-27T22:00:39.119Z,35.50
2019-01-27T22:02:44.787Z,45.45
2019-01-27T22:04:50.603Z,48.70
2019-01-27T22:06:56.096Z,33.70
2019-01-27T22:09:08.254Z,32.67
2019-01-27T22:11:15.430Z,30.57
2019-01-27T22:13:21.035Z,28.50
2019-01-27T22:15:28.271Z,31.85
2019-01-27T22:17:33.808Z,33.95
2019-01-27T22:19:39.588Z,38.28
2019-01-27T22:21:45.310Z,41.13
2019-01-27T22:23:52.416Z,48.80
2019-01-27T22:25:58.500Z,50.85
2019-01-27T22:28:05.716Z,106.27
2019-01-27T22:30:15.054Z,112.15
2019-01-27T22:32:20.608Z,91.92
2019-01-27T22:34:34.985Z,74.77
2019-01-27T22:36:40.727Z,72.92
2019-01-27T22:38:46.699Z,73.50
2019-01-27T22:40:54.104Z,87.72
2019-01-27T22:42:59.807Z,79.27
2019-01-27T22:45:06.264Z,74.95
2019-01-27T22:47:15.003Z,72.67
2019-01-27T22:49:20.756Z,77.45
2019-01-27T22:51:29.926Z,65.65
2019-01-27T22:53:35.695Z,59.13
2019-01-27T22:55:48.624Z,61.85
